createdAt,value
2023-03-23T00:00:05.272Z,996.24
2023-03-23T00:00:35.237Z,996.14
2023-03-23T00:00:52.514Z,996.14
2023-03-23T00:01:24.388Z,996.14
2023-03-23T00:01:57.452Z,996.24
2023-03-23T00:02:28.741Z,996.24
2023-03-23T00:03:01.245Z,996.04
2023-03-23T00:03:32.415Z,996.04
2023-03-23T00:04:05.227Z,995.94
2023-03-23T00:04:34.266Z,996.31
2023-03-23T00:04:52.401Z,996.31
2023-03-23T00:05:24.728Z,996.31
2023-03-23T00:05:41.611Z,996.14
2023-03-23T00:06:13.040Z,996.14
2023-03-23T00:06:34.275Z,996.04
2023-03-23T00:07:00.448Z,996.04
2023-03-23T00:07:32.408Z,996.04
2023-03-23T00:08:04.395Z,996.14
2023-03-23T00:08:35.331Z,995.83
2023-03-23T00:08:52.343Z,995.83
2023-03-23T00:09:25.243Z,995.83
2023-03-23T00:09:42.346Z,996.14
2023-03-23T00:10:12.597Z,996.14
2023-03-23T00:10:35.338Z,996.14
2023-03-23T00:11:00.698Z,996.14
2023-03-23T00:11:33.168Z,996.14
2023-03-23T00:12:04.374Z,995.94
2023-03-23T00:12:36.037Z,996.24
2023-03-23T00:12:52.559Z,996.24
2023-03-23T00:13:24.463Z,996.24
2023-03-23T00:13:42.204Z,996.24
2023-03-23T00:14:12.404Z,996.24
2023-03-23T00:14:35.826Z,996.14
2023-03-23T00:15:00.791Z,996.14
2023-03-23T00:15:32.379Z,996.14
2023-03-23T00:16:05.274Z,996.14
2023-03-23T00:16:35.281Z,996.41
2023-03-23T00:16:52.397Z,996.41
2023-03-23T00:17:24.523Z,996.41
2023-03-23T00:17:41.463Z,996.24
2023-03-23T00:18:13.093Z,996.24
2023-03-23T00:18:35.319Z,996.24
2023-03-23T00:19:00.487Z,996.24
2023-03-23T00:19:32.433Z,996.24
2023-03-23T00:20:04.535Z,996.24
2023-03-23T00:20:35.329Z,996.14
2023-03-23T00:20:52.592Z,996.14
2023-03-23T00:21:25.188Z,996.14
2023-03-23T00:21:42.172Z,996.31
2023-03-23T00:22:12.468Z,996.31
2023-03-23T00:22:35.331Z,996.31
2023-03-23T00:23:00.425Z,996.31
2023-03-23T00:23:33.140Z,996.31
2023-03-23T00:24:04.413Z,996.24
2023-03-23T00:24:36.943Z,996.04
2023-03-23T00:25:08.819Z,996.04
2023-03-23T00:25:35.342Z,996.14
2023-03-23T00:25:56.660Z,996.14
2023-03-23T00:26:28.806Z,996.14
2023-03-23T00:27:01.143Z,996.14
2023-03-23T00:27:32.362Z,996.14
2023-03-23T00:28:05.128Z,996.14
2023-03-23T00:28:35.346Z,996.14
2023-03-23T00:28:52.402Z,996.14
2023-03-23T00:29:24.544Z,996.14
2023-03-23T00:29:41.582Z,995.94
2023-03-23T00:30:13.684Z,995.94
2023-03-23T00:30:35.402Z,996.14
2023-03-23T00:31:00.417Z,996.14
2023-03-23T00:31:32.416Z,996.14
2023-03-23T00:32:04.346Z,996.04
2023-03-23T00:32:35.301Z,995.94
2023-03-23T00:32:52.337Z,995.94
2023-03-23T00:33:25.269Z,995.94
2023-03-23T00:33:42.250Z,995.83
2023-03-23T00:34:12.430Z,995.83
2023-03-23T00:34:35.666Z,996.04
2023-03-23T00:35:00.544Z,996.04
2023-03-23T00:35:33.091Z,996.04
2023-03-23T00:36:04.419Z,996.24
2023-03-23T00:36:35.966Z,995.94
2023-03-23T00:36:52.465Z,995.94
2023-03-23T00:37:24.494Z,995.94
2023-03-23T00:37:42.388Z,995.94
2023-03-23T00:38:12.443Z,995.94
2023-03-23T00:38:35.262Z,995.94
2023-03-23T00:39:00.426Z,995.94
2023-03-23T00:39:32.349Z,995.94
2023-03-23T00:40:05.290Z,996.24
2023-03-23T00:40:35.287Z,995.83
2023-03-23T00:40:52.563Z,995.83
2023-03-23T00:41:24.552Z,995.83
2023-03-23T00:41:41.456Z,995.94
2023-03-23T00:42:13.101Z,995.94
2023-03-23T00:42:35.211Z,996.04
2023-03-23T00:43:00.478Z,996.04
2023-03-23T00:43:32.335Z,996.04
2023-03-23T00:44:04.631Z,996.04
2023-03-23T00:44:35.417Z,996.14
2023-03-23T00:44:54.281Z,996.14
2023-03-23T00:45:25.572Z,996.14
2023-03-23T00:45:42.632Z,996.14
2023-03-23T00:46:12.360Z,996.14
2023-03-23T00:46:35.424Z,996.14
2023-03-23T00:47:00.395Z,996.14
2023-03-23T00:47:33.300Z,996.14
2023-03-23T00:48:04.353Z,996.24
2023-03-23T00:48:37.009Z,995.94
2023-03-23T00:49:08.388Z,995.94
2023-03-23T00:49:35.323Z,996.31
2023-03-23T00:49:56.471Z,996.31
2023-03-23T00:50:33.835Z,996.31
2023-03-23T00:51:01.185Z,996.14
2023-03-23T00:51:32.382Z,996.14
2023-03-23T00:52:05.043Z,996.14
2023-03-23T00:52:35.612Z,996.14
2023-03-23T00:52:52.489Z,996.14
2023-03-23T00:53:24.517Z,996.14
2023-03-23T00:53:41.456Z,996.04
2023-03-23T00:54:13.051Z,996.04
2023-03-23T00:54:35.621Z,996.14
2023-03-23T00:55:00.594Z,996.14
2023-03-23T00:55:32.353Z,996.14
2023-03-23T00:56:04.384Z,996.24
2023-03-23T00:56:35.355Z,996.24
2023-03-23T00:56:52.377Z,996.24
2023-03-23T00:57:25.381Z,996.24
2023-03-23T00:57:42.294Z,996.14
2023-03-23T00:58:12.348Z,996.14
2023-03-23T00:58:35.568Z,996.14
2023-03-23T00:59:00.442Z,996.14
2023-03-23T00:59:33.013Z,996.14
2023-03-23T01:00:05.536Z,996.04
2023-03-23T01:00:36.013Z,995.94
2023-03-23T01:01:08.565Z,995.94
2023-03-23T01:01:35.441Z,996.14
2023-03-23T01:01:56.447Z,996.14
2023-03-23T01:02:28.550Z,996.14
2023-03-23T01:03:01.105Z,996.04
2023-03-23T01:03:32.461Z,996.04
2023-03-23T01:04:05.115Z,996.04
2023-03-23T01:04:35.316Z,996.24
2023-03-23T01:04:52.598Z,996.24
2023-03-23T01:05:24.686Z,996.24
2023-03-23T01:05:41.745Z,996.04
2023-03-23T01:06:13.188Z,996.04
2023-03-23T01:06:35.307Z,995.83
2023-03-23T01:07:00.644Z,995.83
2023-03-23T01:07:32.340Z,995.83
2023-03-23T01:08:04.386Z,996.04
2023-03-23T01:08:35.465Z,995.94
2023-03-23T01:08:52.579Z,995.94
2023-03-23T01:09:25.261Z,995.94
2023-03-23T01:09:42.197Z,996.04
2023-03-23T01:10:12.535Z,996.04
2023-03-23T01:10:35.370Z,996.14
2023-03-23T01:11:00.401Z,996.14
2023-03-23T01:11:33.001Z,996.14
2023-03-23T01:12:04.431Z,996.14
2023-03-23T01:12:36.550Z,996.14
2023-03-23T01:13:08.587Z,996.14
2023-03-23T01:13:35.440Z,996.04
2023-03-23T01:13:56.816Z,996.04
2023-03-23T01:14:28.738Z,996.04
2023-03-23T01:15:01.621Z,996.31
2023-03-23T01:15:32.453Z,996.31
2023-03-23T01:16:05.142Z,996.31
2023-03-23T01:16:35.713Z,996.24
2023-03-23T01:17:07.836Z,996.24
2023-03-23T01:17:25.062Z,996.24
2023-03-23T01:17:42.181Z,996.04
2023-03-23T01:18:12.441Z,996.04
2023-03-23T01:18:35.419Z,996.24
2023-03-23T01:19:00.663Z,996.24
2023-03-23T01:19:33.084Z,996.24
2023-03-23T01:20:04.561Z,996.14
2023-03-23T01:20:36.253Z,996.14
2023-03-23T01:21:08.431Z,996.14
2023-03-23T01:21:35.614Z,996.24
2023-03-23T01:21:56.484Z,996.24
2023-03-23T01:22:28.646Z,996.24
2023-03-23T01:23:01.262Z,995.94
2023-03-23T01:23:32.413Z,995.94
2023-03-23T01:24:05.200Z,995.94
2023-03-23T01:24:35.419Z,996.04
2023-03-23T01:24:52.429Z,996.04
2023-03-23T01:25:24.796Z,996.04
2023-03-23T01:25:41.712Z,995.94
2023-03-23T01:26:13.104Z,995.94
2023-03-23T01:26:35.785Z,995.83
2023-03-23T01:27:00.564Z,995.83
2023-03-23T01:27:32.448Z,995.83
2023-03-23T01:28:04.451Z,995.63
2023-03-23T01:28:35.470Z,995.73
2023-03-23T01:29:08.536Z,995.73
2023-03-23T01:29:35.684Z,995.73
2023-03-23T01:29:56.455Z,995.73
2023-03-23T01:30:30.028Z,995.73
2023-03-23T01:31:00.493Z,995.94
2023-03-23T01:31:33.036Z,995.94
2023-03-23T01:32:04.358Z,996.14
2023-03-23T01:32:36.149Z,996.04
2023-03-23T01:33:08.392Z,996.04
2023-03-23T01:33:35.349Z,995.94
2023-03-23T01:33:56.384Z,995.94
2023-03-23T01:34:28.336Z,995.94
2023-03-23T01:35:01.298Z,996.04
2023-03-23T01:35:32.406Z,996.04
2023-03-23T01:36:05.259Z,995.43
2023-03-23T01:36:35.958Z,995.53
2023-03-23T01:36:52.162Z,995.53
2023-03-23T01:37:24.399Z,995.53
2023-03-23T01:37:41.468Z,995.43
2023-03-23T01:38:13.290Z,995.43
2023-03-23T01:38:35.350Z,995.53
2023-03-23T01:39:00.450Z,995.53
2023-03-23T01:39:32.343Z,995.53
2023-03-23T01:40:05.614Z,995.43
2023-03-23T01:40:35.402Z,995.53
2023-03-23T01:40:52.537Z,995.53
2023-03-23T01:41:24.462Z,995.53
2023-03-23T01:41:41.469Z,995.53
2023-03-23T01:42:13.099Z,995.53
2023-03-23T01:42:35.378Z,995.53
2023-03-23T01:43:00.502Z,995.53
2023-03-23T01:43:32.398Z,995.53
2023-03-23T01:44:04.475Z,995.63
2023-03-23T01:44:35.333Z,995.63
2023-03-23T01:45:08.670Z,995.63
2023-03-23T01:45:35.436Z,995.73
2023-03-23T01:45:56.571Z,995.73
2023-03-23T01:46:29.366Z,995.73
2023-03-23T01:47:00.475Z,995.63
2023-03-23T01:47:33.046Z,995.63
2023-03-23T01:48:04.350Z,995.63
2023-03-23T01:48:36.275Z,995.63
2023-03-23T01:49:08.336Z,995.63
2023-03-23T01:49:35.952Z,995.83
2023-03-23T01:49:56.398Z,995.83
2023-03-23T01:50:28.753Z,995.83
2023-03-23T01:51:01.179Z,995.63
2023-03-23T01:51:41.857Z,995.63
2023-03-23T01:52:05.296Z,995.63
2023-03-23T01:52:35.299Z,995.53
2023-03-23T01:53:09.686Z,995.53
2023-03-23T01:53:35.330Z,995.43
2023-03-23T01:53:56.461Z,995.43
2023-03-23T01:54:28.395Z,995.43
2023-03-23T01:55:00.657Z,995.43
2023-03-23T01:55:32.324Z,995.43
2023-03-23T01:56:04.283Z,995.22
2023-03-23T01:56:35.823Z,995.22
2023-03-23T01:56:52.186Z,995.22
2023-03-23T01:57:25.245Z,995.22
2023-03-23T01:57:42.184Z,995.33
2023-03-23T01:58:12.336Z,995.33
2023-03-23T01:58:35.328Z,995.33
2023-03-23T01:59:00.571Z,995.33
2023-03-23T01:59:33.031Z,995.33
2023-03-23T02:00:04.969Z,995.22
2023-03-23T02:00:36.074Z,995.33
2023-03-23T02:01:08.372Z,995.33
2023-03-23T02:01:35.445Z,995.22
2023-03-23T02:01:56.411Z,995.22
2023-03-23T02:02:28.308Z,995.22
2023-03-23T02:03:01.116Z,995.33
2023-03-23T02:03:32.406Z,995.33
2023-03-23T02:04:05.018Z,995.12
2023-03-23T02:04:35.318Z,995.22
2023-03-23T02:05:09.280Z,995.22
2023-03-23T02:05:35.296Z,995.12
2023-03-23T02:05:56.561Z,995.12
2023-03-23T02:06:28.553Z,995.12
2023-03-23T02:07:00.436Z,995.22
2023-03-23T02:07:32.449Z,995.22
2023-03-23T02:08:04.380Z,995.12
2023-03-23T02:08:35.371Z,995.22
2023-03-23T02:09:10.394Z,995.22
2023-03-23T02:09:35.390Z,995.22
2023-03-23T02:09:56.464Z,995.22
2023-03-23T02:10:29.553Z,995.22
2023-03-23T02:11:00.508Z,995.33
2023-03-23T02:11:33.032Z,995.33
2023-03-23T02:12:04.319Z,995.33
2023-03-23T02:12:36.145Z,995.43
2023-03-23T02:13:08.374Z,995.43
2023-03-23T02:13:35.323Z,995.43
2023-03-23T02:13:56.594Z,995.43
2023-03-23T02:14:28.370Z,995.43
2023-03-23T02:15:01.568Z,995.12
2023-03-23T02:15:34.271Z,995.12
2023-03-23T02:16:05.164Z,995.33
2023-03-23T02:16:35.521Z,995.33
2023-03-23T02:17:09.141Z,995.33
2023-03-23T02:17:35.333Z,995.22
2023-03-23T02:17:56.431Z,995.22
2023-03-23T02:18:28.401Z,995.22
2023-03-23T02:19:00.554Z,995.12
2023-03-23T02:19:32.332Z,995.12
2023-03-23T02:20:04.530Z,995.33
2023-03-23T02:20:35.342Z,995.43
2023-03-23T02:21:08.397Z,995.43
2023-03-23T02:21:35.844Z,995.53
2023-03-23T02:21:56.440Z,995.53
2023-03-23T02:22:29.226Z,995.53
2023-03-23T02:23:00.509Z,995.53
2023-03-23T02:23:33.023Z,995.53
2023-03-23T02:24:04.307Z,995.43
2023-03-23T02:24:36.195Z,995.43
2023-03-23T02:25:08.575Z,995.43
2023-03-23T02:25:35.377Z,995.53
2023-03-23T02:25:56.585Z,995.53
2023-03-23T02:26:28.364Z,995.53
2023-03-23T02:27:01.173Z,995.33
2023-03-23T02:27:32.341Z,995.33
2023-03-23T02:28:05.034Z,995.43
2023-03-23T02:28:35.259Z,995.53
2023-03-23T02:28:52.388Z,995.53
2023-03-23T02:29:24.479Z,995.53
2023-03-23T02:29:42.373Z,995.43
2023-03-23T02:30:13.445Z,995.43
2023-03-23T02:30:35.776Z,995.53
2023-03-23T02:31:00.525Z,995.53
2023-03-23T02:31:32.425Z,995.53
2023-03-23T02:32:04.407Z,995.33
2023-03-23T02:32:35.321Z,995.43
2023-03-23T02:33:08.404Z,995.43
2023-03-23T02:33:35.396Z,995.63
2023-03-23T02:33:56.562Z,995.63
2023-03-23T02:34:29.170Z,995.63
2023-03-23T02:35:00.631Z,995.43
2023-03-23T02:35:33.111Z,995.43
2023-03-23T02:36:04.358Z,995.63
2023-03-23T02:36:36.037Z,995.33
2023-03-23T02:37:08.354Z,995.33
2023-03-23T02:37:35.314Z,995.43
2023-03-23T02:37:56.373Z,995.43
2023-03-23T02:38:28.397Z,995.43
2023-03-23T02:39:00.429Z,995.53
2023-03-23T02:39:32.398Z,995.53
2023-03-23T02:40:05.347Z,995.43
2023-03-23T02:40:35.360Z,995.43
2023-03-23T02:41:09.077Z,995.43
2023-03-23T02:41:35.817Z,995.43
2023-03-23T02:41:56.458Z,995.43
2023-03-23T02:42:28.345Z,995.43
2023-03-23T02:43:00.562Z,995.22
2023-03-23T02:43:35.049Z,995.22
2023-03-23T02:44:04.516Z,995.43
2023-03-23T02:44:35.843Z,995.02
2023-03-23T02:44:52.370Z,995.02
2023-03-23T02:45:25.461Z,995.02
2023-03-23T02:45:42.737Z,995.53
2023-03-23T02:46:12.317Z,995.53
2023-03-23T02:46:35.319Z,995.22
2023-03-23T02:47:00.447Z,995.22
2023-03-23T02:47:32.985Z,995.22
2023-03-23T02:48:04.623Z,995.22
2023-03-23T02:48:36.167Z,995.12
2023-03-23T02:49:08.339Z,995.12
2023-03-23T02:49:35.334Z,995.22
2023-03-23T02:49:56.307Z,995.22
2023-03-23T02:50:28.556Z,995.22
2023-03-23T02:51:01.146Z,995.33
2023-03-23T02:51:32.337Z,995.33
2023-03-23T02:52:05.040Z,995.33
2023-03-23T02:52:35.506Z,995.43
2023-03-23T02:52:52.554Z,995.43
2023-03-23T02:53:24.463Z,995.43
2023-03-23T02:53:41.499Z,995.22
2023-03-23T02:54:13.042Z,995.22
2023-03-23T02:54:35.616Z,995.33
2023-03-23T02:55:00.726Z,995.33
2023-03-23T02:55:32.401Z,995.33
2023-03-23T02:56:04.380Z,995.33
2023-03-23T02:56:35.349Z,995.02
2023-03-23T02:57:08.363Z,995.02
2023-03-23T02:57:40.515Z,995.22
2023-03-23T02:57:56.386Z,995.22
2023-03-23T02:58:29.296Z,995.22
2023-03-23T02:59:00.350Z,995.43
2023-03-23T02:59:33.038Z,995.43
2023-03-23T03:00:04.810Z,995.43
2023-03-23T03:00:36.225Z,995.22
2023-03-23T03:01:08.308Z,995.22
2023-03-23T03:01:35.693Z,995.12
2023-03-23T03:01:56.383Z,995.12
2023-03-23T03:02:28.347Z,995.12
2023-03-23T03:03:01.201Z,995.12
2023-03-23T03:03:32.372Z,995.12
2023-03-23T03:04:05.123Z,995.12
2023-03-23T03:04:35.304Z,995.43
2023-03-23T03:04:52.539Z,995.43
2023-03-23T03:05:24.662Z,995.43
2023-03-23T03:05:41.539Z,995.33
2023-03-23T03:06:13.165Z,995.33
2023-03-23T03:06:35.271Z,995.43
2023-03-23T03:07:00.439Z,995.43
2023-03-23T03:07:32.424Z,995.43
2023-03-23T03:08:04.292Z,995.33
2023-03-23T03:08:35.444Z,995.22
2023-03-23T03:09:08.276Z,995.22
2023-03-23T03:09:35.358Z,995.22
2023-03-23T03:09:56.450Z,995.22
2023-03-23T03:10:30.351Z,995.22
2023-03-23T03:11:00.503Z,995.33
2023-03-23T03:11:33.092Z,995.33
2023-03-23T03:12:04.300Z,995.33
2023-03-23T03:12:36.060Z,995.43
2023-03-23T03:13:08.392Z,995.43
2023-03-23T03:13:35.340Z,995.53
2023-03-23T03:13:56.365Z,995.53
2023-03-23T03:14:28.391Z,995.53
2023-03-23T03:15:01.397Z,994.82
2023-03-23T03:15:32.318Z,994.82
2023-03-23T03:16:05.108Z,995.22
2023-03-23T03:16:35.299Z,995.12
2023-03-23T03:17:09.606Z,995.12
2023-03-23T03:17:35.371Z,995.12
2023-03-23T03:17:56.411Z,995.12
2023-03-23T03:18:28.425Z,995.12
2023-03-23T03:19:00.492Z,995.12
2023-03-23T03:19:32.288Z,995.12
2023-03-23T03:20:04.493Z,995.43
2023-03-23T03:20:35.722Z,995.12
2023-03-23T03:21:07.880Z,995.12
2023-03-23T03:21:25.104Z,995.12
2023-03-23T03:21:42.122Z,995.22
2023-03-23T03:22:12.506Z,995.22
2023-03-23T03:22:35.792Z,995.33
2023-03-23T03:23:00.610Z,995.33
2023-03-23T03:23:33.080Z,995.33
2023-03-23T03:24:04.336Z,995.12
2023-03-23T03:24:36.267Z,995.12
2023-03-23T03:25:17.986Z,995.12
2023-03-23T03:25:36.444Z,995.22
2023-03-23T03:25:56.519Z,995.22
2023-03-23T03:26:28.413Z,995.22
2023-03-23T03:27:01.093Z,995.12
2023-03-23T03:27:32.365Z,995.12
2023-03-23T03:28:05.056Z,995.33
2023-03-23T03:28:35.298Z,994.82
2023-03-23T03:29:09.055Z,994.82
2023-03-23T03:29:36.147Z,994.92
2023-03-23T03:29:56.411Z,994.92
2023-03-23T03:30:28.590Z,994.92
2023-03-23T03:31:00.421Z,994.92
2023-03-23T03:31:32.374Z,994.92
2023-03-23T03:32:04.317Z,994.92
2023-03-23T03:32:35.449Z,994.92
2023-03-23T03:33:08.335Z,994.92
2023-03-23T03:33:35.900Z,994.82
2023-03-23T03:33:56.493Z,994.82
2023-03-23T03:34:29.267Z,994.82
2023-03-23T03:35:00.684Z,995.12
2023-03-23T03:35:33.098Z,995.12
2023-03-23T03:36:04.391Z,994.92
2023-03-23T03:36:36.283Z,995.12
2023-03-23T03:37:08.342Z,995.12
2023-03-23T03:37:35.301Z,995.12
2023-03-23T03:37:56.389Z,995.12
2023-03-23T03:38:28.385Z,995.12
2023-03-23T03:39:00.386Z,995.12
2023-03-23T03:39:32.356Z,995.12
2023-03-23T03:40:05.605Z,995.12
2023-03-23T03:40:35.317Z,995.02
2023-03-23T03:41:08.994Z,995.02
2023-03-23T03:41:35.303Z,995.12
2023-03-23T03:41:56.406Z,995.12
2023-03-23T03:42:28.340Z,995.12
2023-03-23T03:43:00.386Z,995.02
2023-03-23T03:43:32.379Z,995.02
2023-03-23T03:44:04.482Z,995.12
2023-03-23T03:44:35.329Z,995.02
2023-03-23T03:45:08.661Z,995.02
2023-03-23T03:45:35.318Z,995.02
2023-03-23T03:45:56.581Z,995.02
2023-03-23T03:46:29.325Z,995.02
2023-03-23T03:47:00.448Z,995.22
2023-03-23T03:47:33.215Z,995.22
2023-03-23T03:48:04.278Z,995.02
2023-03-23T03:48:37.235Z,995.02
2023-03-23T03:49:08.297Z,995.02
2023-03-23T03:49:35.747Z,995.02
2023-03-23T03:49:56.461Z,995.02
2023-03-23T03:50:28.773Z,995.02
2023-03-23T03:51:01.287Z,995.02
2023-03-23T03:51:32.344Z,995.02
2023-03-23T03:52:05.176Z,995.33
2023-03-23T03:52:35.312Z,995.22
2023-03-23T03:53:09.101Z,995.22
2023-03-23T03:53:35.370Z,995.22
2023-03-23T03:53:56.439Z,995.22
2023-03-23T03:54:28.285Z,995.22
2023-03-23T03:55:00.632Z,995.12
2023-03-23T03:55:32.372Z,995.12
2023-03-23T03:56:04.500Z,995.12
2023-03-23T03:56:35.332Z,994.92
2023-03-23T03:57:08.353Z,994.92
2023-03-23T03:57:35.315Z,995.02
2023-03-23T03:57:56.495Z,995.02
2023-03-23T03:58:29.642Z,995.02
2023-03-23T03:59:00.373Z,995.22
2023-03-23T03:59:35.371Z,995.22
2023-03-23T04:00:04.744Z,995.22
2023-03-23T04:00:36.588Z,994.92
2023-03-23T04:01:08.404Z,994.92
2023-03-23T04:01:35.266Z,995.02
2023-03-23T04:01:56.349Z,995.02
2023-03-23T04:02:28.391Z,995.02
2023-03-23T04:03:01.213Z,995.02
2023-03-23T04:03:32.301Z,995.02
2023-03-23T04:04:04.984Z,995.02
2023-03-23T04:04:35.664Z,995.12
2023-03-23T04:05:07.962Z,995.12
2023-03-23T04:05:25.185Z,995.12
2023-03-23T04:05:42.499Z,995.02
2023-03-23T04:06:12.359Z,995.02
2023-03-23T04:06:35.356Z,995.02
2023-03-23T04:07:00.727Z,995.02
2023-03-23T04:07:33.237Z,995.02
2023-03-23T04:08:09.302Z,995.02
2023-03-23T04:08:36.461Z,995.02
2023-03-23T04:09:09.084Z,995.02
2023-03-23T04:09:35.351Z,995.02
2023-03-23T04:09:56.601Z,995.02
2023-03-23T04:10:32.707Z,995.02
2023-03-23T04:11:01.175Z,995.33
2023-03-23T04:11:33.236Z,995.33
2023-03-23T04:12:04.971Z,995.33
2023-03-23T04:12:35.348Z,995.22
2023-03-23T04:13:09.042Z,995.22
2023-03-23T04:13:36.284Z,995.22
2023-03-23T04:13:56.595Z,995.22
2023-03-23T04:14:28.373Z,995.22
2023-03-23T04:15:06.252Z,995.22
2023-03-23T04:15:32.355Z,995.22
2023-03-23T04:16:07.105Z,995.33
2023-03-23T04:16:35.337Z,995.12
2023-03-23T04:17:08.343Z,995.12
2023-03-23T04:17:35.381Z,995.33
2023-03-23T04:18:12.309Z,995.33
2023-03-23T04:18:35.491Z,995.33
2023-03-23T04:19:00.429Z,995.33
2023-03-23T04:19:33.033Z,995.33
2023-03-23T04:20:04.513Z,995.53
2023-03-23T04:20:36.169Z,995.33
2023-03-23T04:21:08.345Z,995.33
2023-03-23T04:21:35.289Z,995.53
2023-03-23T04:21:56.405Z,995.53
2023-03-23T04:22:28.361Z,995.53
2023-03-23T04:23:01.214Z,995.33
2023-03-23T04:23:32.279Z,995.33
2023-03-23T04:24:05.140Z,995.43
2023-03-23T04:24:56.225Z,995.43
2023-03-23T04:25:09.353Z,995.43
2023-03-23T04:25:35.512Z,995.43
2023-03-23T04:25:56.593Z,995.43
2023-03-23T04:26:28.472Z,995.43
2023-03-23T04:27:00.393Z,995.63
2023-03-23T04:27:32.270Z,995.63
2023-03-23T04:28:04.283Z,995.43
2023-03-23T04:28:35.262Z,995.53
2023-03-23T04:29:08.437Z,995.53
2023-03-23T04:29:35.242Z,995.63
2023-03-23T04:29:56.496Z,995.63
2023-03-23T04:30:29.763Z,995.63
2023-03-23T04:31:00.384Z,995.73
2023-03-23T04:31:33.101Z,995.73
2023-03-23T04:32:04.269Z,995.43
2023-03-23T04:32:36.131Z,995.73
2023-03-23T04:33:08.309Z,995.73
2023-03-23T04:33:59.845Z,995.43
2023-03-23T04:34:12.376Z,995.43
2023-03-23T04:34:35.289Z,995.33
2023-03-23T04:35:12.911Z,995.33
2023-03-23T04:35:32.356Z,995.33
2023-03-23T04:36:05.080Z,995.33
2023-03-23T04:36:56.516Z,995.53
2023-03-23T04:37:09.135Z,995.53
2023-03-23T04:37:35.292Z,995.63
2023-03-23T04:37:56.433Z,995.63
2023-03-23T04:38:28.434Z,995.63
2023-03-23T04:39:00.413Z,995.53
2023-03-23T04:39:32.263Z,995.53
2023-03-23T04:40:05.284Z,995.53
2023-03-23T04:40:35.314Z,995.22
2023-03-23T04:41:09.198Z,995.22
2023-03-23T04:41:35.308Z,995.33
2023-03-23T04:41:56.478Z,995.33
2023-03-23T04:42:28.446Z,995.33
2023-03-23T04:43:00.464Z,995.53
2023-03-23T04:43:32.318Z,995.53
2023-03-23T04:44:04.452Z,995.53
2023-03-23T04:44:35.334Z,995.83
2023-03-23T04:45:25.513Z,995.83
2023-03-23T04:45:42.705Z,995.33
2023-03-23T04:46:12.330Z,995.33
2023-03-23T04:46:35.289Z,995.43
2023-03-23T04:47:00.420Z,995.43
2023-03-23T04:47:33.080Z,995.43
2023-03-23T04:48:04.268Z,995.53
2023-03-23T04:48:36.482Z,995.53
2023-03-23T04:49:08.326Z,995.53
2023-03-23T04:49:35.663Z,995.53
2023-03-23T04:49:56.377Z,995.53
2023-03-23T04:50:28.514Z,995.53
2023-03-23T04:51:01.039Z,995.63
2023-03-23T04:51:32.281Z,995.63
2023-03-23T04:52:05.063Z,995.53
2023-03-23T04:52:35.660Z,995.43
2023-03-23T04:52:52.099Z,995.43
2023-03-23T04:53:24.360Z,995.43
2023-03-23T04:53:41.527Z,995.53
2023-03-23T04:54:13.145Z,995.53
2023-03-23T04:54:35.243Z,995.53
2023-03-23T04:55:00.725Z,995.53
2023-03-23T04:55:32.286Z,995.53
2023-03-23T04:56:04.358Z,995.33
2023-03-23T04:56:35.432Z,995.43
2023-03-23T04:56:52.319Z,995.43
2023-03-23T04:57:25.000Z,995.43
2023-03-23T04:57:42.104Z,995.73
2023-03-23T04:58:12.237Z,995.73
2023-03-23T04:58:35.295Z,995.63
2023-03-23T04:59:00.476Z,995.63
2023-03-23T04:59:33.110Z,995.63
2023-03-23T05:00:04.712Z,995.73
2023-03-23T05:00:36.248Z,995.73
2023-03-23T05:01:09.101Z,995.73
2023-03-23T05:01:35.296Z,995.73
2023-03-23T05:02:14.703Z,995.73
2023-03-23T05:02:29.383Z,995.73
2023-03-23T05:03:01.029Z,995.73
2023-03-23T05:03:32.352Z,995.73
2023-03-23T05:04:05.021Z,995.63
2023-03-23T05:04:35.369Z,995.53
2023-03-23T05:04:52.363Z,995.53
2023-03-23T05:05:24.561Z,995.53
2023-03-23T05:05:41.581Z,995.53
2023-03-23T05:06:13.008Z,995.53
2023-03-23T05:06:35.282Z,995.43
2023-03-23T05:07:00.628Z,995.43
2023-03-23T05:07:32.274Z,995.43
2023-03-23T05:08:04.256Z,995.53
2023-03-23T05:08:35.285Z,995.63
2023-03-23T05:09:08.363Z,995.63
2023-03-23T05:09:35.297Z,995.53
2023-03-23T05:09:56.444Z,995.53
2023-03-23T05:10:30.267Z,995.53
2023-03-23T05:11:00.731Z,995.43
2023-03-23T05:11:33.072Z,995.43
2023-03-23T05:12:04.365Z,995.73
2023-03-23T05:12:36.017Z,995.73
2023-03-23T05:13:08.288Z,995.73
2023-03-23T05:13:35.315Z,995.63
2023-03-23T05:13:56.391Z,995.63
2023-03-23T05:14:28.432Z,995.63
2023-03-23T05:15:01.527Z,995.63
2023-03-23T05:15:32.309Z,995.63
2023-03-23T05:16:05.224Z,995.73
2023-03-23T05:16:35.255Z,995.63
2023-03-23T05:16:52.108Z,995.63
2023-03-23T05:17:24.458Z,995.63
2023-03-23T05:17:41.502Z,995.73
2023-03-23T05:18:13.111Z,995.73
2023-03-23T05:18:35.303Z,995.73
2023-03-23T05:19:00.485Z,995.73
2023-03-23T05:19:32.388Z,995.73
2023-03-23T05:20:04.487Z,995.73
2023-03-23T05:20:35.312Z,995.73
2023-03-23T05:21:08.371Z,995.73
2023-03-23T05:21:36.160Z,995.53
2023-03-23T05:21:56.455Z,995.53
2023-03-23T05:22:29.206Z,995.53
2023-03-23T05:23:00.356Z,995.63
2023-03-23T05:23:33.103Z,995.63
2023-03-23T05:24:04.528Z,995.53
2023-03-23T05:24:36.536Z,995.63
2023-03-23T05:25:08.501Z,995.63
2023-03-23T05:25:35.958Z,995.73
2023-03-23T05:25:56.604Z,995.73
2023-03-23T05:26:28.387Z,995.73
2023-03-23T05:27:01.363Z,995.63
2023-03-23T05:27:32.245Z,995.63
2023-03-23T05:28:06.021Z,995.43
2023-03-23T05:28:35.593Z,995.63
2023-03-23T05:28:52.098Z,995.63
2023-03-23T05:29:24.448Z,995.63
2023-03-23T05:29:41.454Z,995.73
2023-03-23T05:30:13.351Z,995.73
2023-03-23T05:30:35.337Z,995.73
2023-03-23T05:31:00.494Z,995.73
2023-03-23T05:31:32.324Z,995.73
2023-03-23T05:32:04.305Z,995.63
2023-03-23T05:32:35.550Z,995.63
2023-03-23T05:33:07.796Z,995.63
2023-03-23T05:33:24.955Z,995.63
2023-03-23T05:33:42.138Z,995.43
2023-03-23T05:34:12.400Z,995.43
2023-03-23T05:34:35.409Z,995.53
2023-03-23T05:35:00.764Z,995.53
2023-03-23T05:35:33.166Z,995.53
2023-03-23T05:36:04.378Z,995.53
2023-03-23T05:36:36.447Z,995.53
2023-03-23T05:37:08.568Z,995.53
2023-03-23T05:37:35.394Z,995.53
2023-03-23T05:37:56.979Z,995.53
2023-03-23T05:38:28.633Z,995.53
2023-03-23T05:39:00.567Z,995.73
2023-03-23T05:39:32.777Z,995.73
2023-03-23T05:40:05.472Z,995.83
2023-03-23T05:40:35.663Z,995.63
2023-03-23T05:41:07.907Z,995.63
2023-03-23T05:41:25.246Z,995.63
2023-03-23T05:41:42.230Z,995.83
2023-03-23T05:42:12.569Z,995.83
2023-03-23T05:42:35.489Z,995.73
2023-03-23T05:43:00.539Z,995.73
2023-03-23T05:43:33.818Z,995.73
2023-03-23T05:44:04.648Z,995.73
2023-03-23T05:44:36.467Z,995.73
2023-03-23T05:45:08.800Z,995.73
2023-03-23T05:45:35.706Z,995.83
2023-03-23T05:45:56.794Z,995.83
2023-03-23T05:46:28.522Z,995.83
2023-03-23T05:47:01.244Z,995.53
2023-03-23T05:47:32.664Z,995.53
2023-03-23T05:48:05.125Z,995.83
2023-03-23T05:48:35.401Z,995.83
2023-03-23T05:49:10.025Z,995.83
2023-03-23T05:49:35.483Z,995.83
2023-03-23T05:49:56.771Z,995.83
2023-03-23T05:50:28.722Z,995.83
2023-03-23T05:51:00.499Z,995.63
2023-03-23T05:51:32.744Z,995.63
2023-03-23T05:52:04.553Z,995.83
2023-03-23T05:52:35.504Z,995.94
2023-03-23T05:52:52.623Z,995.94
2023-03-23T05:53:25.249Z,995.94
2023-03-23T05:53:42.267Z,995.83
2023-03-23T05:54:12.428Z,995.83
2023-03-23T05:54:35.382Z,995.83
2023-03-23T05:55:00.955Z,995.83
2023-03-23T05:55:33.282Z,995.83
2023-03-23T05:56:04.641Z,995.83
2023-03-23T05:56:36.500Z,995.73
2023-03-23T05:57:08.392Z,995.73
2023-03-23T05:57:36.018Z,995.83